sensor_id;sensor_type;location;lat;lon;timestamp;P1;durP1;ratioP1;P2;durP2;ratioP2
16845;SDS011;8539;53.188;8.696;2022-10-31T00:01:36;31.23;;;21.45;;
16845;SDS011;8539;53.188;8.696;2022-10-31T00:04:08;43.78;;;24.63;;
16845;SDS011;8539;53.188;8.696;2022-10-31T00:06:35;38.70;;;23.17;;
16845;SDS011;8539;53.188;8.696;2022-10-31T00:09:04;33.00;;;22.48;;
16845;SDS011;8539;53.188;8.696;2022-10-31T00:11:33;40.15;;;24.45;;
16845;SDS011;8539;53.188;8.696;2022-10-31T00:14:03;33.28;;;20.75;;
16845;SDS011;8539;53.188;8.696;2022-10-31T00:16:30;35.28;;;21.33;;
16845;SDS011;8539;53.188;8.696;2022-10-31T00:19:02;37.00;;;23.95;;
16845;SDS011;8539;53.188;8.696;2022-10-31T00:21:32;40.40;;;23.77;;
16845;SDS011;8539;53.188;8.696;2022-10-31T00:24:00;49.50;;;24.70;;
16845;SDS011;8539;53.188;8.696;2022-10-31T00:26:28;42.05;;;22.60;;
16845;SDS011;8539;53.188;8.696;2022-10-31T00:28:56;35.15;;;24.52;;
16845;SDS011;8539;53.188;8.696;2022-10-31T00:31:23;45.75;;;27.98;;
16845;SDS011;8539;53.188;8.696;2022-10-31T00:33:50;39.13;;;24.23;;
16845;SDS011;8539;53.188;8.696;2022-10-31T00:36:18;36.20;;;24.10;;
16845;SDS011;8539;53.188;8.696;2022-10-31T00:38:47;41.75;;;23.95;;
16845;SDS011;8539;53.188;8.696;2022-10-31T00:41:15;43.58;;;25.10;;
16845;SDS011;8539;53.188;8.696;2022-10-31T00:43:43;39.08;;;25.70;;
16845;SDS011;8539;53.188;8.696;2022-10-31T00:46:10;47.13;;;27.13;;
16845;SDS011;8539;53.188;8.696;2022-10-31T00:48:38;42.65;;;25.27;;
16845;SDS011;8539;53.188;8.696;2022-10-31T00:51:05;37.80;;;25.02;;
16845;SDS011;8539;53.188;8.696;2022-10-31T00:53:33;37.67;;;23.42;;
16845;SDS011;8539;53.188;8.696;2022-10-31T00:56:00;41.13;;;24.10;;
16845;SDS011;8539;53.188;8.696;2022-10-31T00:58:27;46.80;;;26.58;;
16845;SDS011;8539;53.188;8.696;2022-10-31T01:00:53;41.35;;;26.35;;
16845;SDS011;8539;53.188;8.696;2022-10-31T01:03:28;40.90;;;25.90;;
16845;SDS011;8539;53.188;8.696;2022-10-31T01:08:32;41.60;;;26.60;;
16845;SDS011;8539;53.188;8.696;2022-10-31T01:11:11;44.75;;;27.42;;
16845;SDS011;8539;53.188;8.696;2022-10-31T01:13:40;44.03;;;26.17;;
16845;SDS011;8539;53.188;8.696;2022-10-31T01:16:07;45.50;;;28.73;;
16845;SDS011;8539;53.188;8.696;2022-10-31T01:18:36;49.97;;;27.02;;
16845;SDS011;8539;53.188;8.696;2022-10-31T01:21:06;41.85;;;26.63;;
16845;SDS011;8539;53.188;8.696;2022-10-31T01:23:43;38.85;;;26.10;;
16845;SDS011;8539;53.188;8.696;2022-10-31T01:26:12;44.42;;;27.67;;
16845;SDS011;8539;53.188;8.696;2022-10-31T01:28:46;41.47;;;25.33;;
16845;SDS011;8539;53.188;8.696;2022-10-31T01:31:12;39.25;;;24.95;;
16845;SDS011;8539;53.188;8.696;2022-10-31T01:33:39;44.17;;;26.73;;
16845;SDS011;8539;53.188;8.696;2022-10-31T01:38:55;39.88;;;25.75;;
16845;SDS011;8539;53.188;8.696;2022-10-31T01:41:29;46.83;;;29.30;;
16845;SDS011;8539;53.188;8.696;2022-10-31T01:46:32;46.90;;;26.23;;
16845;SDS011;8539;53.188;8.696;2022-10-31T01:49:08;42.90;;;27.75;;
16845;SDS011;8539;53.188;8.696;2022-10-31T01:51:40;39.97;;;26.48;;
16845;SDS011;8539;53.188;8.696;2022-10-31T01:54:14;41.97;;;26.02;;
16845;SDS011;8539;53.188;8.696;2022-10-31T01:56:45;43.70;;;27.10;;
16845;SDS011;8539;53.188;8.696;2022-10-31T01:59:15;45.58;;;26.27;;
16845;SDS011;8539;53.188;8.696;2022-10-31T02:01:44;41.42;;;27.83;;
16845;SDS011;8539;53.188;8.696;2022-10-31T02:04:12;42.20;;;27.30;;
16845;SDS011;8539;53.188;8.696;2022-10-31T02:06:44;38.40;;;25.48;;
16845;SDS011;8539;53.188;8.696;2022-10-31T02:09:15;38.78;;;26.42;;
16845;SDS011;8539;53.188;8.696;2022-10-31T02:11:43;45.28;;;26.17;;
16845;SDS011;8539;53.188;8.696;2022-10-31T02:14:10;36.22;;;23.13;;
16845;SDS011;8539;53.188;8.696;2022-10-31T02:16:37;39.85;;;24.83;;
16845;SDS011;8539;53.188;8.696;2022-10-31T02:19:04;41.70;;;26.67;;
16845;SDS011;8539;53.188;8.696;2022-10-31T02:24:17;43.97;;;25.42;;
16845;SDS011;8539;53.188;8.696;2022-10-31T02:27:04;48.75;;;24.80;;
16845;SDS011;8539;53.188;8.696;2022-10-31T02:29:54;41.45;;;27.13;;
16845;SDS011;8539;53.188;8.696;2022-10-31T02:32:47;39.50;;;26.15;;
16845;SDS011;8539;53.188;8.696;2022-10-31T02:35:33;40.28;;;25.25;;
16845;SDS011;8539;53.188;8.696;2022-10-31T02:38:16;40.85;;;24.98;;
16845;SDS011;8539;53.188;8.696;2022-10-31T02:41:04;41.22;;;25.05;;
16845;SDS011;8539;53.188;8.696;2022-10-31T02:48:51;43.28;;;23.83;;
16845;SDS011;8539;53.188;8.696;2022-10-31T02:51:21;52.58;;;29.02;;
16845;SDS011;8539;53.188;8.696;2022-10-31T02:53:48;39.53;;;27.13;;
16845;SDS011;8539;53.188;8.696;2022-10-31T02:56:16;52.20;;;29.95;;
16845;SDS011;8539;53.188;8.696;2022-10-31T03:04:27;70.78;;;27.67;;
16845;SDS011;8539;53.188;8.696;2022-10-31T03:09:41;44.22;;;27.10;;
16845;SDS011;8539;53.188;8.696;2022-10-31T03:12:25;46.90;;;28.25;;
16845;SDS011;8539;53.188;8.696;2022-10-31T03:15:12;44.55;;;26.42;;
16845;SDS011;8539;53.188;8.696;2022-10-31T03:20:16;37.25;;;24.60;;
16845;SDS011;8539;53.188;8.696;2022-10-31T03:22:47;36.70;;;24.30;;
16845;SDS011;8539;53.188;8.696;2022-10-31T03:25:14;37.60;;;25.95;;
16845;SDS011;8539;53.188;8.696;2022-10-31T03:27:41;32.72;;;24.63;;
16845;SDS011;8539;53.188;8.696;2022-10-31T03:30:09;38.03;;;24.85;;
16845;SDS011;8539;53.188;8.696;2022-10-31T03:32:47;31.10;;;22.45;;
16845;SDS011;8539;53.188;8.696;2022-10-31T03:35:16;37.15;;;26.35;;
16845;SDS011;8539;53.188;8.696;2022-10-31T03:37:45;38.15;;;23.85;;
16845;SDS011;8539;53.188;8.696;2022-10-31T03:40:13;37.10;;;24.42;;
16845;SDS011;8539;53.188;8.696;2022-10-31T03:42:43;34.85;;;23.67;;
16845;SDS011;8539;53.188;8.696;2022-10-31T03:45:17;36.15;;;23.88;;
16845;SDS011;8539;53.188;8.696;2022-10-31T03:47:50;30.33;;;21.88;;
16845;SDS011;8539;53.188;8.696;2022-10-31T03:50:18;35.55;;;23.75;;
16845;SDS011;8539;53.188;8.696;2022-10-31T03:52:46;32.20;;;21.52;;
16845;SDS011;8539;53.188;8.696;2022-10-31T03:55:28;39.47;;;23.50;;
16845;SDS011;8539;53.188;8.696;2022-10-31T03:58:00;34.25;;;24.20;;
16845;SDS011;8539;53.188;8.696;2022-10-31T04:00:33;37.40;;;25.73;;
16845;SDS011;8539;53.188;8.696;2022-10-31T04:03:05;38.85;;;27.13;;
16845;SDS011;8539;53.188;8.696;2022-10-31T04:05:50;34.88;;;24.15;;
16845;SDS011;8539;53.188;8.696;2022-10-31T04:08:20;38.30;;;25.20;;
16845;SDS011;8539;53.188;8.696;2022-10-31T04:10:54;38.03;;;25.40;;
16845;SDS011;8539;53.188;8.696;2022-10-31T04:13:24;38.58;;;24.98;;
16845;SDS011;8539;53.188;8.696;2022-10-31T04:15:54;41.90;;;27.63;;
16845;SDS011;8539;53.188;8.696;2022-10-31T04:18:24;41.25;;;27.10;;
16845;SDS011;8539;53.188;8.696;2022-10-31T04:20:59;45.70;;;27.73;;
16845;SDS011;8539;53.188;8.696;2022-10-31T04:23:30;39.85;;;26.50;;
16845;SDS011;8539;53.188;8.696;2022-10-31T04:25:59;45.70;;;28.02;;
16845;SDS011;8539;53.188;8.696;2022-10-31T04:28:25;53.97;;;29.77;;
16845;SDS011;8539;53.188;8.696;2022-10-31T04:30:51;45.13;;;28.00;;
16845;SDS011;8539;53.188;8.696;2022-10-31T04:33:18;44.80;;;27.48;;
16845;SDS011;8539;53.188;8.696;2022-10-31T04:35:44;50.33;;;28.05;;
16845;SDS011;8539;53.188;8.696;2022-10-31T04:38:11;48.40;;;25.88;;
16845;SDS011;8539;53.188;8.696;2022-10-31T04:40:37;30.42;;;22.67;;
16845;SDS011;8539;53.188;8.696;2022-10-31T04:43:04;35.30;;;23.45;;
16845;SDS011;8539;53.188;8.696;2022-10-31T04:45:30;47.67;;;22.83;;
16845;SDS011;8539;53.188;8.696;2022-10-31T04:47:56;34.88;;;22.58;;
16845;SDS011;8539;53.188;8.696;2022-10-31T04:50:23;42.83;;;24.30;;
16845;SDS011;8539;53.188;8.696;2022-10-31T04:52:49;33.17;;;21.42;;
16845;SDS011;8539;53.188;8.696;2022-10-31T04:55:15;23.70;;;17.67;;
16845;SDS011;8539;53.188;8.696;2022-10-31T04:57:47;30.15;;;20.40;;
16845;SDS011;8539;53.188;8.696;2022-10-31T05:00:59;32.03;;;17.55;;
16845;SDS011;8539;53.188;8.696;2022-10-31T05:03:25;24.98;;;18.08;;
16845;SDS011;8539;53.188;8.696;2022-10-31T05:05:51;23.95;;;17.05;;
16845;SDS011;8539;53.188;8.696;2022-10-31T05:08:17;20.80;;;16.83;;
16845;SDS011;8539;53.188;8.696;2022-10-31T05:10:43;33.53;;;17.75;;
16845;SDS011;8539;53.188;8.696;2022-10-31T05:13:10;22.25;;;16.75;;
16845;SDS011;8539;53.188;8.696;2022-10-31T05:15:36;19.25;;;15.55;;
16845;SDS011;8539;53.188;8.696;2022-10-31T05:18:02;26.35;;;17.42;;
16845;SDS011;8539;53.188;8.696;2022-10-31T05:20:30;32.15;;;18.88;;
16845;SDS011;8539;53.188;8.696;2022-10-31T05:22:57;19.02;;;17.00;;
16845;SDS011;8539;53.188;8.696;2022-10-31T05:25:27;18.25;;;16.15;;
16845;SDS011;8539;53.188;8.696;2022-10-31T05:27:54;21.02;;;17.02;;
16845;SDS011;8539;53.188;8.696;2022-10-31T05:30:22;19.35;;;16.50;;
16845;SDS011;8539;53.188;8.696;2022-10-31T05:32:53;23.92;;;17.95;;
16845;SDS011;8539;53.188;8.696;2022-10-31T05:35:21;31.02;;;20.98;;
16845;SDS011;8539;53.188;8.696;2022-10-31T05:37:49;22.85;;;17.42;;
16845;SDS011;8539;53.188;8.696;2022-10-31T05:40:16;28.45;;;18.63;;
16845;SDS011;8539;53.188;8.696;2022-10-31T05:42:43;24.70;;;18.02;;
16845;SDS011;8539;53.188;8.696;2022-10-31T05:45:10;49.28;;;21.30;;
16845;SDS011;8539;53.188;8.696;2022-10-31T05:47:38;29.48;;;19.75;;
16845;SDS011;8539;53.188;8.696;2022-10-31T05:50:05;27.48;;;22.77;;
16845;SDS011;8539;53.188;8.696;2022-10-31T05:52:32;32.95;;;23.40;;
16845;SDS011;8539;53.188;8.696;2022-10-31T05:54:59;33.00;;;24.30;;
16845;SDS011;8539;53.188;8.696;2022-10-31T05:57:25;55.88;;;25.92;;
16845;SDS011;8539;53.188;8.696;2022-10-31T05:59:51;61.28;;;26.25;;
16845;SDS011;8539;53.188;8.696;2022-10-31T06:02:22;55.42;;;28.52;;
16845;SDS011;8539;53.188;8.696;2022-10-31T06:04:57;41.00;;;25.15;;
16845;SDS011;8539;53.188;8.696;2022-10-31T06:07:23;41.38;;;25.00;;
16845;SDS011;8539;53.188;8.696;2022-10-31T06:09:49;39.83;;;27.45;;
16845;SDS011;8539;53.188;8.696;2022-10-31T06:12:16;39.80;;;24.60;;
16845;SDS011;8539;53.188;8.696;2022-10-31T06:14:42;40.28;;;25.77;;
16845;SDS011;8539;53.188;8.696;2022-10-31T06:17:12;37.15;;;26.35;;
16845;SDS011;8539;53.188;8.696;2022-10-31T06:19:39;43.17;;;24.95;;
16845;SDS011;8539;53.188;8.696;2022-10-31T06:22:05;39.17;;;24.73;;
16845;SDS011;8539;53.188;8.696;2022-10-31T06:27:24;39.58;;;24.65;;
16845;SDS011;8539;53.188;8.696;2022-10-31T06:29:51;36.92;;;25.67;;
16845;SDS011;8539;53.188;8.696;2022-10-31T06:32:17;45.00;;;25.35;;
16845;SDS011;8539;53.188;8.696;2022-10-31T06:34:59;33.42;;;25.13;;
16845;SDS011;8539;53.188;8.696;2022-10-31T06:52:57;42.35;;;26.85;;
16845;SDS011;8539;53.188;8.696;2022-10-31T06:55:32;31.40;;;24.85;;
16845;SDS011;8539;53.188;8.696;2022-10-31T07:12:55;39.35;;;22.73;;
16845;SDS011;8539;53.188;8.696;2022-10-31T07:15:23;31.55;;;23.15;;
16845;SDS011;8539;53.188;8.696;2022-10-31T07:17:50;30.08;;;23.35;;
16845;SDS011;8539;53.188;8.696;2022-10-31T07:20:16;30.77;;;23.92;;
16845;SDS011;8539;53.188;8.696;2022-10-31T07:22:42;29.20;;;22.50;;
16845;SDS011;8539;53.188;8.696;2022-10-31T07:25:09;31.67;;;23.10;;
16845;SDS011;8539;53.188;8.696;2022-10-31T07:27:39;25.05;;;21.33;;
16845;SDS011;8539;53.188;8.696;2022-10-31T07:30:07;29.40;;;23.65;;
16845;SDS011;8539;53.188;8.696;2022-10-31T07:35:09;31.55;;;23.98;;
16845;SDS011;8539;53.188;8.696;2022-10-31T07:37:40;31.48;;;22.23;;
16845;SDS011;8539;53.188;8.696;2022-10-31T07:40:07;32.08;;;23.17;;
16845;SDS011;8539;53.188;8.696;2022-10-31T07:42:38;31.65;;;24.48;;
16845;SDS011;8539;53.188;8.696;2022-10-31T07:45:05;37.45;;;26.52;;
16845;SDS011;8539;53.188;8.696;2022-10-31T07:50:20;35.60;;;26.70;;
16845;SDS011;8539;53.188;8.696;2022-10-31T07:52:57;34.63;;;26.05;;
16845;SDS011;8539;53.188;8.696;2022-10-31T07:55:34;45.75;;;26.45;;
16845;SDS011;8539;53.188;8.696;2022-10-31T07:58:05;41.63;;;28.33;;
16845;SDS011;8539;53.188;8.696;2022-10-31T08:00:34;54.80;;;26.67;;
16845;SDS011;8539;53.188;8.696;2022-10-31T08:03:05;39.35;;;24.55;;
16845;SDS011;8539;53.188;8.696;2022-10-31T08:05:35;51.28;;;26.48;;
16845;SDS011;8539;53.188;8.696;2022-10-31T08:08:03;40.03;;;27.27;;
16845;SDS011;8539;53.188;8.696;2022-10-31T08:10:30;38.97;;;26.30;;
16845;SDS011;8539;53.188;8.696;2022-10-31T08:13:08;38.42;;;27.38;;
16845;SDS011;8539;53.188;8.696;2022-10-31T08:15:39;55.67;;;28.42;;
16845;SDS011;8539;53.188;8.696;2022-10-31T08:18:12;48.78;;;26.88;;
16845;SDS011;8539;53.188;8.696;2022-10-31T08:20:39;45.08;;;25.58;;
16845;SDS011;8539;53.188;8.696;2022-10-31T08:23:08;32.75;;;25.33;;
16845;SDS011;8539;53.188;8.696;2022-10-31T08:25:36;46.17;;;24.00;;
16845;SDS011;8539;53.188;8.696;2022-10-31T08:28:02;41.97;;;26.40;;
16845;SDS011;8539;53.188;8.696;2022-10-31T08:30:30;31.38;;;23.27;;
16845;SDS011;8539;53.188;8.696;2022-10-31T08:32:58;32.10;;;24.58;;
16845;SDS011;8539;53.188;8.696;2022-10-31T08:35:26;39.58;;;25.30;;
16845;SDS011;8539;53.188;8.696;2022-10-31T08:37:55;30.38;;;25.00;;
16845;SDS011;8539;53.188;8.696;2022-10-31T08:40:23;31.52;;;24.15;;
16845;SDS011;8539;53.188;8.696;2022-10-31T08:43:00;28.60;;;24.45;;
16845;SDS011;8539;53.188;8.696;2022-10-31T08:45:28;36.90;;;24.60;;
16845;SDS011;8539;53.188;8.696;2022-10-31T08:47:59;35.47;;;26.90;;
16845;SDS011;8539;53.188;8.696;2022-10-31T08:50:27;37.40;;;26.23;;
16845;SDS011;8539;53.188;8.696;2022-10-31T08:52:59;36.40;;;26.42;;
16845;SDS011;8539;53.188;8.696;2022-10-31T08:55:37;39.63;;;27.92;;
16845;SDS011;8539;53.188;8.696;2022-10-31T08:58:05;40.28;;;27.02;;
16845;SDS011;8539;53.188;8.696;2022-10-31T09:00:34;36.00;;;26.08;;
16845;SDS011;8539;53.188;8.696;2022-10-31T09:03:02;40.90;;;29.27;;
16845;SDS011;8539;53.188;8.696;2022-10-31T09:05:31;39.30;;;25.20;;
16845;SDS011;8539;53.188;8.696;2022-10-31T09:07:58;37.42;;;26.42;;
16845;SDS011;8539;53.188;8.696;2022-10-31T09:10:27;33.63;;;27.13;;
16845;SDS011;8539;53.188;8.696;2022-10-31T09:12:57;33.40;;;25.83;;
16845;SDS011;8539;53.188;8.696;2022-10-31T09:15:34;33.58;;;26.08;;
16845;SDS011;8539;53.188;8.696;2022-10-31T09:18:04;36.03;;;27.13;;
16845;SDS011;8539;53.188;8.696;2022-10-31T09:20:31;33.58;;;25.77;;
16845;SDS011;8539;53.188;8.696;2022-10-31T09:22:59;37.95;;;26.58;;
16845;SDS011;8539;53.188;8.696;2022-10-31T09:25:31;35.83;;;29.23;;
16845;SDS011;8539;53.188;8.696;2022-10-31T09:27:59;38.60;;;27.42;;
16845;SDS011;8539;53.188;8.696;2022-10-31T09:30:27;35.97;;;28.23;;
16845;SDS011;8539;53.188;8.696;2022-10-31T09:32:56;42.78;;;29.83;;
16845;SDS011;8539;53.188;8.696;2022-10-31T09:35:23;49.60;;;32.67;;
16845;SDS011;8539;53.188;8.696;2022-10-31T09:38:09;46.50;;;30.50;;
16845;SDS011;8539;53.188;8.696;2022-10-31T09:40:47;43.58;;;30.67;;
16845;SDS011;8539;53.188;8.696;2022-10-31T09:46:29;46.80;;;30.98;;
16845;SDS011;8539;53.188;8.696;2022-10-31T09:51:55;53.35;;;31.83;;
16845;SDS011;8539;53.188;8.696;2022-10-31T09:54:38;52.03;;;31.55;;
16845;SDS011;8539;53.188;8.696;2022-10-31T09:57:18;53.25;;;34.17;;
16845;SDS011;8539;53.188;8.696;2022-10-31T09:59:49;46.90;;;32.08;;
16845;SDS011;8539;53.188;8.696;2022-10-31T10:02:27;52.08;;;34.33;;
16845;SDS011;8539;53.188;8.696;2022-10-31T10:04:59;49.35;;;34.00;;
16845;SDS011;8539;53.188;8.696;2022-10-31T10:07:35;45.50;;;33.20;;
16845;SDS011;8539;53.188;8.696;2022-10-31T10:10:12;48.67;;;31.70;;
16845;SDS011;8539;53.188;8.696;2022-10-31T10:18:32;55.03;;;31.88;;
16845;SDS011;8539;53.188;8.696;2022-10-31T10:29:47;70.80;;;35.72;;
16845;SDS011;8539;53.188;8.696;2022-10-31T10:32:25;68.63;;;37.35;;
16845;SDS011;8539;53.188;8.696;2022-10-31T10:35:11;68.60;;;33.33;;
16845;SDS011;8539;53.188;8.696;2022-10-31T10:37:46;65.43;;;33.17;;
16845;SDS011;8539;53.188;8.696;2022-10-31T10:40:24;54.83;;;32.22;;
16845;SDS011;8539;53.188;8.696;2022-10-31T11:00:34;33.63;;;24.95;;
16845;SDS011;8539;53.188;8.696;2022-10-31T11:03:06;30.90;;;24.58;;
16845;SDS011;8539;53.188;8.696;2022-10-31T11:05:35;34.63;;;25.73;;
16845;SDS011;8539;53.188;8.696;2022-10-31T11:08:11;30.88;;;24.38;;
16845;SDS011;8539;53.188;8.696;2022-10-31T11:11:08;32.45;;;24.65;;
16845;SDS011;8539;53.188;8.696;2022-10-31T11:13:43;37.13;;;26.48;;
16845;SDS011;8539;53.188;8.696;2022-10-31T12:45:12;34.67;;;20.52;;
16845;SDS011;8539;53.188;8.696;2022-10-31T12:52:04;33.75;;;22.70;;
16845;SDS011;8539;53.188;8.696;2022-10-31T12:54:38;36.20;;;22.95;;
16845;SDS011;8539;53.188;8.696;2022-10-31T13:00:18;33.75;;;22.73;;
16845;SDS011;8539;53.188;8.696;2022-10-31T13:09:53;35.13;;;24.00;;
16845;SDS011;8539;53.188;8.696;2022-10-31T13:12:30;32.95;;;24.60;;
16845;SDS011;8539;53.188;8.696;2022-10-31T13:15:34;36.63;;;24.63;;
16845;SDS011;8539;53.188;8.696;2022-10-31T14:01:19;44.03;;;26.58;;
16845;SDS011;8539;53.188;8.696;2022-10-31T14:08:22;39.75;;;27.30;;
16845;SDS011;8539;53.188;8.696;2022-10-31T14:10:52;43.15;;;28.95;;
16845;SDS011;8539;53.188;8.696;2022-10-31T14:13:41;42.40;;;28.30;;
16845;SDS011;8539;53.188;8.696;2022-10-31T14:16:25;47.00;;;27.92;;
16845;SDS011;8539;53.188;8.696;2022-10-31T14:20:01;44.50;;;27.23;;
16845;SDS011;8539;53.188;8.696;2022-10-31T14:23:10;41.13;;;26.85;;
16845;SDS011;8539;53.188;8.696;2022-10-31T14:26:36;46.75;;;27.95;;
16845;SDS011;8539;53.188;8.696;2022-10-31T14:52:00;54.42;;;30.00;;
16845;SDS011;8539;53.188;8.696;2022-10-31T14:54:28;45.78;;;28.67;;
16845;SDS011;8539;53.188;8.696;2022-10-31T15:26:38;43.65;;;26.60;;
16845;SDS011;8539;53.188;8.696;2022-10-31T15:29:17;42.97;;;26.15;;
16845;SDS011;8539;53.188;8.696;2022-10-31T15:37:13;42.57;;;26.93;;
16845;SDS011;8539;53.188;8.696;2022-10-31T15:39:47;36.35;;;24.77;;
16845;SDS011;8539;53.188;8.696;2022-10-31T15:42:32;44.40;;;28.02;;
16845;SDS011;8539;53.188;8.696;2022-10-31T15:45:21;34.58;;;22.08;;
16845;SDS011;8539;53.188;8.696;2022-10-31T15:48:03;38.60;;;23.65;;
16845;SDS011;8539;53.188;8.696;2022-10-31T15:56:20;37.40;;;23.00;;
16845;SDS011;8539;53.188;8.696;2022-10-31T15:58:50;40.95;;;23.48;;
16845;SDS011;8539;53.188;8.696;2022-10-31T16:01:27;38.65;;;23.27;;
16845;SDS011;8539;53.188;8.696;2022-10-31T16:04:21;42.10;;;22.73;;
16845;SDS011;8539;53.188;8.696;2022-10-31T16:06:59;36.25;;;21.77;;
16845;SDS011;8539;53.188;8.696;2022-10-31T16:09:58;33.53;;;20.58;;
16845;SDS011;8539;53.188;8.696;2022-10-31T16:12:34;31.42;;;21.00;;
16845;SDS011;8539;53.188;8.696;2022-10-31T16:15:02;36.72;;;21.50;;
16845;SDS011;8539;53.188;8.696;2022-10-31T16:17:33;39.58;;;22.60;;
16845;SDS011;8539;53.188;8.696;2022-10-31T16:20:28;44.05;;;21.85;;
16845;SDS011;8539;53.188;8.696;2022-10-31T16:22:58;33.30;;;20.02;;
16845;SDS011;8539;53.188;8.696;2022-10-31T16:25:32;40.72;;;22.08;;
16845;SDS011;8539;53.188;8.696;2022-10-31T16:28:22;35.95;;;21.13;;
16845;SDS011;8539;53.188;8.696;2022-10-31T16:31:12;36.25;;;20.80;;
16845;SDS011;8539;53.188;8.696;2022-10-31T16:33:40;42.38;;;20.25;;
16845;SDS011;8539;53.188;8.696;2022-10-31T16:38:56;34.10;;;18.77;;
16845;SDS011;8539;53.188;8.696;2022-10-31T16:41:28;37.35;;;20.23;;
16845;SDS011;8539;53.188;8.696;2022-10-31T16:43:59;36.38;;;21.48;;
16845;SDS011;8539;53.188;8.696;2022-10-31T16:51:51;37.17;;;20.42;;
16845;SDS011;8539;53.188;8.696;2022-10-31T16:54:57;42.97;;;21.30;;
16845;SDS011;8539;53.188;8.696;2022-10-31T16:57:51;42.53;;;21.27;;
16845;SDS011;8539;53.188;8.696;2022-10-31T17:00:24;34.13;;;18.77;;
16845;SDS011;8539;53.188;8.696;2022-10-31T17:02:54;39.17;;;21.85;;
16845;SDS011;8539;53.188;8.696;2022-10-31T17:05:32;36.03;;;21.45;;
16845;SDS011;8539;53.188;8.696;2022-10-31T17:08:02;35.42;;;19.98;;
16845;SDS011;8539;53.188;8.696;2022-10-31T17:10:30;34.65;;;19.70;;
16845;SDS011;8539;53.188;8.696;2022-10-31T17:13:03;33.83;;;18.80;;
16845;SDS011;8539;53.188;8.696;2022-10-31T17:15:37;31.80;;;18.40;;
16845;SDS011;8539;53.188;8.696;2022-10-31T17:18:21;40.28;;;21.55;;
16845;SDS011;8539;53.188;8.696;2022-10-31T17:21:02;37.38;;;17.85;;
16845;SDS011;8539;53.188;8.696;2022-10-31T17:23:35;38.92;;;20.23;;
16845;SDS011;8539;53.188;8.696;2022-10-31T17:26:03;32.72;;;20.40;;
16845;SDS011;8539;53.188;8.696;2022-10-31T17:28:44;44.25;;;21.15;;
16845;SDS011;8539;53.188;8.696;2022-10-31T17:31:14;35.90;;;20.85;;
16845;SDS011;8539;53.188;8.696;2022-10-31T17:33:53;33.13;;;18.45;;
16845;SDS011;8539;53.188;8.696;2022-10-31T17:36:21;32.67;;;18.50;;
16845;SDS011;8539;53.188;8.696;2022-10-31T17:38:47;32.33;;;17.98;;
16845;SDS011;8539;53.188;8.696;2022-10-31T17:41:15;35.33;;;18.35;;
16845;SDS011;8539;53.188;8.696;2022-10-31T17:43:41;33.55;;;18.83;;
16845;SDS011;8539;53.188;8.696;2022-10-31T17:46:08;33.30;;;18.08;;
16845;SDS011;8539;53.188;8.696;2022-10-31T17:48:41;33.92;;;19.08;;
16845;SDS011;8539;53.188;8.696;2022-10-31T17:51:10;27.98;;;18.33;;
16845;SDS011;8539;53.188;8.696;2022-10-31T17:53:50;29.73;;;19.42;;
16845;SDS011;8539;53.188;8.696;2022-10-31T17:56:17;33.63;;;18.52;;
16845;SDS011;8539;53.188;8.696;2022-10-31T17:58:44;30.50;;;18.15;;
16845;SDS011;8539;53.188;8.696;2022-10-31T18:01:14;30.90;;;17.85;;
16845;SDS011;8539;53.188;8.696;2022-10-31T18:03:44;33.17;;;18.00;;
16845;SDS011;8539;53.188;8.696;2022-10-31T18:06:11;28.77;;;17.98;;
16845;SDS011;8539;53.188;8.696;2022-10-31T18:12:20;31.55;;;18.30;;
16845;SDS011;8539;53.188;8.696;2022-10-31T18:14:48;37.20;;;19.55;;
16845;SDS011;8539;53.188;8.696;2022-10-31T18:17:22;31.67;;;17.80;;
16845;SDS011;8539;53.188;8.696;2022-10-31T18:19:51;33.95;;;17.67;;
16845;SDS011;8539;53.188;8.696;2022-10-31T18:22:21;27.27;;;16.75;;
16845;SDS011;8539;53.188;8.696;2022-10-31T18:25:02;22.60;;;15.82;;
16845;SDS011;8539;53.188;8.696;2022-10-31T18:27:35;27.77;;;17.00;;
16845;SDS011;8539;53.188;8.696;2022-10-31T18:30:07;25.58;;;15.35;;
16845;SDS011;8539;53.188;8.696;2022-10-31T18:32:56;31.17;;;15.63;;
16845;SDS011;8539;53.188;8.696;2022-10-31T18:35:24;26.08;;;15.98;;
16845;SDS011;8539;53.188;8.696;2022-10-31T18:37:55;28.20;;;15.98;;
16845;SDS011;8539;53.188;8.696;2022-10-31T18:40:33;25.67;;;15.20;;
16845;SDS011;8539;53.188;8.696;2022-10-31T18:43:20;24.02;;;15.35;;
16845;SDS011;8539;53.188;8.696;2022-10-31T18:48:46;21.23;;;14.00;;
16845;SDS011;8539;53.188;8.696;2022-10-31T18:51:12;22.65;;;14.20;;
16845;SDS011;8539;53.188;8.696;2022-10-31T18:53:40;24.63;;;13.85;;
16845;SDS011;8539;53.188;8.696;2022-10-31T18:56:08;24.48;;;13.90;;
16845;SDS011;8539;53.188;8.696;2022-10-31T18:58:38;21.75;;;13.93;;
16845;SDS011;8539;53.188;8.696;2022-10-31T19:01:05;22.58;;;12.65;;
16845;SDS011;8539;53.188;8.696;2022-10-31T19:03:34;19.15;;;12.82;;
16845;SDS011;8539;53.188;8.696;2022-10-31T19:06:07;23.15;;;12.77;;
16845;SDS011;8539;53.188;8.696;2022-10-31T19:08:55;21.08;;;11.80;;
16845;SDS011;8539;53.188;8.696;2022-10-31T19:11:23;22.02;;;10.82;;
16845;SDS011;8539;53.188;8.696;2022-10-31T19:23:02;20.83;;;10.55;;
16845;SDS011;8539;53.188;8.696;2022-10-31T19:25:29;16.50;;;10.95;;
16845;SDS011;8539;53.188;8.696;2022-10-31T19:27:59;19.02;;;10.25;;
16845;SDS011;8539;53.188;8.696;2022-10-31T19:30:28;19.08;;;12.00;;
16845;SDS011;8539;53.188;8.696;2022-10-31T19:32:56;19.20;;;11.35;;
16845;SDS011;8539;53.188;8.696;2022-10-31T19:35:23;18.30;;;11.40;;
16845;SDS011;8539;53.188;8.696;2022-10-31T19:37:55;16.40;;;9.60;;
16845;SDS011;8539;53.188;8.696;2022-10-31T19:40:22;16.48;;;10.73;;
16845;SDS011;8539;53.188;8.696;2022-10-31T19:42:48;18.63;;;10.48;;
16845;SDS011;8539;53.188;8.696;2022-10-31T19:45:14;17.63;;;11.00;;
16845;SDS011;8539;53.188;8.696;2022-10-31T19:47:41;16.90;;;10.70;;
16845;SDS011;8539;53.188;8.696;2022-10-31T19:50:08;13.57;;;10.05;;
16845;SDS011;8539;53.188;8.696;2022-10-31T19:52:40;16.33;;;10.77;;
16845;SDS011;8539;53.188;8.696;2022-10-31T19:55:11;18.70;;;10.20;;
16845;SDS011;8539;53.188;8.696;2022-10-31T19:57:38;15.48;;;10.07;;
16845;SDS011;8539;53.188;8.696;2022-10-31T20:00:16;17.75;;;10.27;;
16845;SDS011;8539;53.188;8.696;2022-10-31T20:02:46;16.23;;;10.93;;
16845;SDS011;8539;53.188;8.696;2022-10-31T20:05:17;15.05;;;10.48;;
16845;SDS011;8539;53.188;8.696;2022-10-31T20:07:44;17.10;;;9.70;;
16845;SDS011;8539;53.188;8.696;2022-10-31T20:10:11;18.42;;;10.00;;
16845;SDS011;8539;53.188;8.696;2022-10-31T20:12:38;21.85;;;10.43;;
16845;SDS011;8539;53.188;8.696;2022-10-31T20:15:10;19.10;;;10.75;;
16845;SDS011;8539;53.188;8.696;2022-10-31T20:17:37;15.60;;;9.55;;
16845;SDS011;8539;53.188;8.696;2022-10-31T20:20:09;23.38;;;11.70;;
16845;SDS011;8539;53.188;8.696;2022-10-31T20:22:38;18.92;;;12.25;;
16845;SDS011;8539;53.188;8.696;2022-10-31T20:25:05;23.42;;;12.73;;
16845;SDS011;8539;53.188;8.696;2022-10-31T20:27:33;17.83;;;10.75;;
16845;SDS011;8539;53.188;8.696;2022-10-31T20:30:36;20.70;;;12.23;;
16845;SDS011;8539;53.188;8.696;2022-10-31T20:33:07;23.05;;;11.77;;
16845;SDS011;8539;53.188;8.696;2022-10-31T20:35:35;21.10;;;11.68;;
16845;SDS011;8539;53.188;8.696;2022-10-31T20:38:06;21.92;;;11.82;;
16845;SDS011;8539;53.188;8.696;2022-10-31T20:40:45;18.40;;;11.73;;
16845;SDS011;8539;53.188;8.696;2022-10-31T20:43:12;30.65;;;14.35;;
16845;SDS011;8539;53.188;8.696;2022-10-31T20:45:42;21.58;;;13.00;;
16845;SDS011;8539;53.188;8.696;2022-10-31T20:48:10;27.38;;;14.60;;